Time;durP1;ratioP1;P1;durP2;ratioP2;P2;SDS_P1;SDS_P2;PMS_P1;PMS_P2;Temp;Humidity;BMP_temperature;BMP_pressure;BME280_temperature;BME280_humidity;BME280_pressure;Samples;Min_cycle;Max_cycle;Signal;HPM_P1;HPM_P2
2022/07/13 00:02:07;;;;;;;2.22;1.45;;;;;;;16.54;68.47;97027.38;5007790;28;20046;-78
2022/07/13 00:04:33;;;;;;;2.63;1.73;;;;;;;16.42;68.81;97023.44;5007997;28;20042;-78
2022/07/13 00:07:00;;;;;;;2.15;1.65;;;;;;;16.38;68.98;97030.75;5008069;28;20046;-78
2022/07/13 00:09:28;;;;;;;6.97;1.60;;;;;;;16.20;69.60;97025.78;5007810;28;20042;-78
2022/07/13 00:11:54;;;;;;;2.50;1.48;;;;;;;16.13;69.75;97021.66;5007945;28;20049;-79
2022/07/13 00:14:21;;;;;;;2.40;1.60;;;;;;;16.08;70.17;97023.81;5007539;28;20138;-78
2022/07/13 00:16:47;;;;;;;3.97;1.70;;;;;;;16.14;69.81;97027.94;5008047;28;20053;-79
2022/07/13 00:19:14;;;;;;;3.53;1.70;;;;;;;16.14;70.08;97025.19;5007659;28;20045;-79
2022/07/13 00:21:40;;;;;;;3.38;1.58;;;;;;;16.14;69.54;97022.44;5007841;28;20060;-77
2022/07/13 00:24:07;;;;;;;3.53;1.60;;;;;;;16.16;69.23;97015.47;5007192;28;20057;-80
2022/07/13 00:26:35;;;;;;;2.80;1.50;;;;;;;16.14;69.23;97016.97;5007437;28;20724;-80
2022/07/13 00:29:02;;;;;;;2.53;1.80;;;;;;;16.06;69.44;97009.59;5007234;28;20050;-79
2022/07/13 00:31:29;;;;;;;2.60;1.73;;;;;;;16.05;69.56;97013.47;5007817;28;20046;-79
2022/07/13 00:33:55;;;;;;;2.00;1.55;;;;;;;15.98;69.45;97007.75;5007482;28;20056;-79
2022/07/13 00:36:22;;;;;;;3.90;1.73;;;;;;;15.95;69.50;97003.72;5007084;28;20492;-79
2022/07/13 00:38:49;;;;;;;4.68;1.90;;;;;;;15.99;69.54;97012.09;5007786;28;20045;-79
2022/07/13 00:41:15;;;;;;;2.67;1.67;;;;;;;16.07;69.24;97013.94;5007190;28;20554;-78
2022/07/13 00:43:43;;;;;;;4.22;1.88;;;;;;;16.01;69.52;97007.03;5007719;28;20057;-78
2022/07/13 00:46:10;;;;;;;4.05;1.90;;;;;;;15.99;69.60;97004.66;5006849;28;20050;-79
2022/07/13 00:48:39;;;;;;;4.72;1.90;;;;;;;15.93;69.51;97005.19;5007729;28;20046;-79
2022/07/13 00:51:06;;;;;;;2.78;1.92;;;;;;;15.89;69.53;97005.84;4993921;28;20524;-79
2022/07/13 00:53:36;;;;;;;3.55;1.73;;;;;;;15.89;69.32;97013.28;5011265;28;20049;-78
2022/07/13 00:56:04;;;;;;;3.05;1.52;;;;;;;15.89;69.45;97005.84;5023199;28;20153;-78
2022/07/13 00:58:32;;;;;;;2.70;1.67;;;;;;;15.79;69.93;97006.25;5003462;28;20046;-79
2022/07/13 01:01:00;;;;;;;3.25;1.83;;;;;;;15.58;70.20;96997.19;5007110;28;20054;-78
2022/07/13 01:03:27;;;;;;;2.95;1.98;;;;;;;15.53;70.38;96995.44;5007051;28;20050;-79
2022/07/13 01:05:54;;;;;;;2.47;1.75;;;;;;;15.49;70.42;97000.00;5007089;28;20050;-79
2022/07/13 01:08:22;;;;;;;2.90;1.70;;;;;;;15.49;70.71;96996.44;5006815;28;20053;-78
2022/07/13 01:10:48;;;;;;;3.10;1.80;;;;;;;15.48;70.54;96994.84;5009564;28;20046;-79
2022/07/13 01:13:17;;;;;;;2.15;1.63;;;;;;;15.54;70.47;96999.00;5010370;28;20046;-79
2022/07/13 01:15:43;;;;;;;3.15;1.70;;;;;;;15.57;70.66;97001.09;5010625;28;20049;-79
2022/07/13 01:18:12;;;;;;;3.45;1.60;;;;;;;15.67;71.28;96997.97;5010241;28;20042;-79
2022/07/13 01:20:39;;;;;;;2.88;1.80;;;;;;;15.74;70.44;97000.97;5010664;28;20087;-78
2022/07/13 01:23:10;;;;;;;2.20;1.60;;;;;;;15.69;70.91;97000.38;5009953;28;20445;-79
2022/07/13 01:25:37;;;;;;;2.53;1.80;;;;;;;15.73;70.75;97004.88;5010634;28;20046;-79
2022/07/13 01:28:03;;;;;;;4.40;1.60;;;;;;;15.58;70.19;97010.94;5013783;28;20062;-80
2022/07/13 01:30:30;;;;;;;3.97;2.08;;;;;;;15.25;70.87;97011.63;5010322;28;20042;-78
2022/07/13 01:32:56;;;;;;;4.90;2.00;;;;;;;15.27;71.13;97005.81;5010792;28;20049;-78
2022/07/13 01:35:24;;;;;;;4.03;1.70;;;;;;;15.29;71.19;97009.00;5010299;28;20049;-78
2022/07/13 01:37:51;;;;;;;2.30;1.70;;;;;;;15.34;70.99;97006.88;5010436;28;20046;-79
2022/07/13 01:40:19;;;;;;;2.45;1.77;;;;;;;15.39;71.48;97003.13;5010027;28;20141;-78
2022/07/13 01:42:47;;;;;;;2.85;1.75;;;;;;;15.43;71.58;97006.03;5010139;28;20671;-79
2022/07/13 01:45:15;;;;;;;2.65;1.98;;;;;;;15.45;70.95;97003.75;5009673;28;20050;-80
2022/07/13 01:47:43;;;;;;;1.95;1.50;;;;;;;15.45;71.42;97010.03;5010187;28;20053;-80
2022/07/13 01:50:12;;;;;;;2.85;1.50;;;;;;;15.48;71.70;97014.06;5009655;28;20050;-78
2022/07/13 01:52:39;;;;;;;2.47;1.42;;;;;;;15.44;71.30;97010.38;5010185;28;20496;-79
2022/07/13 01:55:08;;;;;;;4.20;1.60;;;;;;;15.38;71.03;97013.31;5009643;28;20050;-79
2022/07/13 01:57:36;;;;;;;2.40;1.60;;;;;;;15.39;71.18;97003.13;5013790;28;20050;-78
2022/07/13 02:00:06;;;;;;;2.28;1.80;;;;;;;15.36;71.43;97009.31;5009638;28;20676;-78
2022/07/13 02:02:33;;;;;;;3.15;1.75;;;;;;;15.33;70.90;97004.47;5010147;28;20045;-79
2022/07/13 02:05:00;;;;;;;2.17;1.70;;;;;;;15.29;71.22;97009.00;5010099;28;20050;-78
2022/07/13 02:07:26;;;;;;;2.38;1.42;;;;;;;15.33;71.22;97009.97;5009375;28;20042;-79
2022/07/13 02:09:53;;;;;;;2.17;1.33;;;;;;;15.23;71.25;97005.66;5009840;28;20144;-79
2022/07/13 02:12:19;;;;;;;2.97;1.63;;;;;;;15.23;71.50;97002.91;5009477;28;20049;-79
2022/07/13 02:14:47;;;;;;;2.90;1.83;;;;;;;15.22;71.34;97003.25;5009942;28;20057;-82
2022/07/13 02:17:14;;;;;;;2.38;1.60;;;;;;;15.25;71.82;96997.13;5009302;28;20054;-79
2022/07/13 02:19:41;;;;;;;2.35;1.45;;;;;;;15.24;71.82;96982.56;5009737;28;20050;-79
2022/07/13 02:22:08;;;;;;;3.17;1.70;;;;;;;15.27;71.92;96997.56;5007784;28;20050;-79
2022/07/13 02:24:35;;;;;;;2.40;1.77;;;;;;;15.29;72.30;96998.03;5009688;28;20182;-79
2022/07/13 02:27:01;;;;;;;3.72;2.05;;;;;;;15.29;72.18;96992.53;5012642;28;20048;-78
2022/07/13 02:29:28;;;;;;;3.92;1.80;;;;;;;15.24;71.78;97001.78;5009642;28;20053;-78
2022/07/13 02:31:56;;;;;;;2.20;1.80;;;;;;;15.20;71.64;97006.34;5009906;28;20050;-78
2022/07/13 02:34:27;;;;;;;3.22;1.52;;;;;;;15.27;72.06;97009.34;5009349;28;20497;-78
2022/07/13 02:36:53;;;;;;;3.33;1.70;;;;;;;15.23;71.48;97002.91;5009539;28;20049;-78
2022/07/13 02:39:20;;;;;;;2.53;1.50;;;;;;;15.17;72.01;97001.50;5009183;28;20536;-77
2022/07/13 02:41:46;;;;;;;5.78;1.65;;;;;;;15.14;71.88;97005.72;5009654;28;20049;-79
2022/07/13 02:44:13;;;;;;;3.65;1.80;;;;;;;15.18;72.05;97008.59;5008844;28;20057;-78
2022/07/13 02:46:39;;;;;;;2.70;1.52;;;;;;;15.17;71.82;97007.00;5009366;28;20073;-78
2022/07/13 02:49:07;;;;;;;2.08;1.52;;;;;;;15.20;72.01;97002.78;5008967;28;20430;-79
2022/07/13 02:51:34;;;;;;;6.18;1.80;;;;;;;15.13;72.11;97000.56;5009055;28;20543;-78
2022/07/13 02:54:01;;;;;;;2.00;1.33;;;;;;;15.20;72.17;97006.34;5009211;28;20049;-78
2022/07/13 02:56:27;;;;;;;6.22;1.60;;;;;;;15.19;72.60;97003.91;5009386;28;20045;-79
2022/07/13 02:58:54;;;;;;;2.20;1.55;;;;;;;15.22;72.81;97008.75;5012028;28;20512;-78
2022/07/13 03:01:20;;;;;;;1.73;1.40;;;;;;;15.04;72.21;97002.56;5008763;28;20053;-78
2022/07/13 03:03:47;;;;;;;2.88;1.70;;;;;;;14.98;72.29;97004.69;5009225;28;20501;-77
2022/07/13 03:06:15;;;;;;;2.63;1.65;;;;;;;14.84;72.97;96995.88;5008814;28;20042;-79
2022/07/13 03:08:41;;;;;;;4.68;1.98;;;;;;;14.78;73.07;97000.75;5009094;28;20053;-78
2022/07/13 03:11:08;;;;;;;2.55;1.52;;;;;;;14.70;73.32;96993.34;5008515;28;20046;-77
2022/07/13 03:13:35;;;;;;;2.97;1.60;;;;;;;14.73;73.39;97003.66;5009110;28;20131;-78
2022/07/13 03:16:01;;;;;;;7.15;1.85;;;;;;;14.71;73.47;97000.44;5008760;28;20117;-78
2022/07/13 03:18:28;;;;;;;2.47;1.70;;;;;;;14.57;73.73;97005.34;5009103;28;20038;-78
2022/07/13 03:20:55;;;;;;;3.47;1.80;;;;;;;14.58;73.70;96995.97;5008916;28;20050;-77
2022/07/13 03:23:23;;;;;;;4.22;1.73;;;;;;;14.57;73.83;96995.19;5008021;28;20068;-78
2022/07/13 03:25:50;;;;;;;3.60;1.70;;;;;;;14.64;73.57;97000.16;5008910;28;20500;-77
2022/07/13 03:28:16;;;;;;;2.20;1.42;;;;;;;14.69;73.74;97007.38;5023499;28;20056;-77
2022/07/13 03:30:43;;;;;;;2.38;1.50;;;;;;;14.73;73.82;97011.09;5028603;28;20045;-78
2022/07/13 03:33:09;;;;;;;2.55;1.60;;;;;;;14.80;74.18;97003.94;5027764;28;20504;-78
2022/07/13 03:35:36;;;;;;;3.58;1.83;;;;;;;14.76;73.66;97013.97;5028248;28;20061;-77
2022/07/13 03:38:02;;;;;;;3.17;1.67;;;;;;;14.79;73.57;97013.31;5027925;28;20053;-77
2022/07/13 03:40:30;;;;;;;5.18;1.60;;;;;;;14.77;73.91;97010.09;5028168;28;20507;-78
2022/07/13 03:42:57;;;;;;;4.10;1.73;;;;;;;14.71;74.25;97013.34;5028353;28;20049;-78
2022/07/13 03:45:23;;;;;;;2.50;1.85;;;;;;;14.67;74.02;97004.97;5027872;28;20053;-79
2022/07/13 03:47:50;;;;;;;6.13;1.67;;;;;;;14.63;74.15;97009.50;5028088;28;20049;-78
2022/07/13 03:50:16;;;;;;;2.70;1.80;;;;;;;14.72;74.18;97004.81;5027657;28;20404;-79
2022/07/13 03:52:44;;;;;;;3.00;1.85;;;;;;;14.68;73.77;97001.09;5028101;28;20049;-78
2022/07/13 03:55:10;;;;;;;3.95;1.95;;;;;;;14.71;73.90;97000.44;5027555;28;20041;-78
2022/07/13 03:57:38;;;;;;;5.30;1.80;;;;;;;14.72;73.71;96999.31;5025136;28;20045;-78
2022/07/13 04:00:06;;;;;;;2.80;1.40;;;;;;;14.78;73.96;97006.22;5027611;28;20045;-79
2022/07/13 04:02:32;;;;;;;3.28;1.42;;;;;;;14.87;74.25;97008.91;5027981;28;20050;-78
2022/07/13 04:04:59;;;;;;;3.67;1.80;;;;;;;14.92;74.55;97005.19;5027960;28;20049;-78
2022/07/13 04:07:26;;;;;;;6.10;2.08;;;;;;;14.89;73.89;97001.19;5027245;28;20041;-78
2022/07/13 04:09:52;;;;;;;4.57;1.98;;;;;;;14.86;73.43;96997.13;5028080;28;20080;-78
2022/07/13 04:12:21;;;;;;;3.65;1.70;;;;;;;14.94;73.68;97000.19;5027345;28;20053;-78
2022/07/13 04:14:49;;;;;;;3.28;1.85;;;;;;;14.95;73.27;97004.53;5027959;28;20050;-79
2022/07/13 04:17:16;;;;;;;3.60;1.85;;;;;;;14.99;73.46;97000.00;5027390;28;20060;-78
2022/07/13 04:19:42;;;;;;;5.68;2.30;;;;;;;14.99;73.29;97000.00;5027647;28;20405;-78
2022/07/13 04:22:09;;;;;;;3.10;1.88;;;;;;;15.08;73.64;96993.31;5027168;28;20042;-79
2022/07/13 04:24:35;;;;;;;3.38;1.60;;;;;;;15.09;74.29;96991.41;5027543;28;20054;-77
2022/07/13 04:27:02;;;;;;;2.70;1.70;;;;;;;15.14;74.11;96986.53;5025254;28;20043;-77
2022/07/13 04:29:28;;;;;;;5.68;1.80;;;;;;;15.18;74.20;96988.59;5007926;28;20050;-78
2022/07/13 04:31:56;;;;;;;2.00;1.50;;;;;;;15.21;74.14;96996.16;5007889;28;20533;-78
2022/07/13 04:34:23;;;;;;;4.65;1.67;;;;;;;15.19;74.67;96993.75;5007220;28;20046;-78
2022/07/13 04:36:49;;;;;;;3.40;1.60;;;;;;;15.25;74.16;96986.94;5007932;28;20103;-79
2022/07/13 04:39:16;;;;;;;2.00;1.30;;;;;;;15.29;74.11;96987.06;5007181;28;20046;-78
2022/07/13 04:41:42;;;;;;;5.35;2.10;;;;;;;15.33;73.36;96988.81;5007636;28;20068;-78
2022/07/13 04:44:09;;;;;;;3.08;1.95;;;;;;;15.34;73.07;96995.91;5006342;28;20053;-77
2022/07/13 04:46:35;;;;;;;3.17;1.73;;;;;;;15.39;73.52;96992.97;5007498;28;20500;-80
2022/07/13 04:49:03;;;;;;;5.95;1.70;;;;;;;15.42;73.15;96985.22;5007032;28;20046;-77
2022/07/13 04:51:30;;;;;;;4.13;1.70;;;;;;;15.41;71.76;96978.91;5007547;28;20050;-78
2022/07/13 04:53:57;;;;;;;5.75;1.73;;;;;;;15.45;71.43;96979.84;5007511;28;20053;-78
2022/07/13 04:56:23;;;;;;;2.53;1.70;;;;;;;15.44;71.82;96983.72;5006104;28;20046;-78
2022/07/13 04:58:50;;;;;;;6.03;1.65;;;;;;;15.51;72.00;96978.53;5027150;28;20069;-79
2022/07/13 05:01:16;;;;;;;3.83;1.63;;;;;;;15.59;72.50;96977.63;5026810;28;20050;-79
2022/07/13 05:03:43;;;;;;;4.45;1.60;;;;;;;15.64;72.53;96979.41;5026937;28;20640;-78
2022/07/13 05:06:13;;;;;;;4.03;1.60;;;;;;;15.67;71.77;96976.00;5026582;28;20045;-80
2022/07/13 05:08:39;;;;;;;4.18;1.42;;;;;;;15.72;71.51;96975.81;5026736;28;20564;-78
2022/07/13 05:11:08;;;;;;;7.63;1.90;;;;;;;15.76;71.38;96984.94;5026661;28;20065;-78
2022/07/13 05:13:34;;;;;;;3.88;1.60;;;;;;;15.80;71.48;96987.84;5026880;28;20721;-78
2022/07/13 05:16:01;;;;;;;3.35;1.90;;;;;;;15.84;72.12;96986.84;5026962;28;20053;-77
2022/07/13 05:18:27;;;;;;;3.58;1.77;;;;;;;15.90;71.56;96980.00;5026724;28;20040;-79
2022/07/13 05:20:54;;;;;;;2.63;1.60;;;;;;;15.91;71.80;96981.59;5026529;28;20049;-77
2022/07/13 05:23:22;;;;;;;2.35;1.75;;;;;;;16.01;71.71;96982.31;5026405;28;20074;-78
2022/07/13 05:25:48;;;;;;;3.55;2.10;;;;;;;16.06;71.32;96987.59;5026905;28;20060;-78
2022/07/13 05:28:15;;;;;;;4.80;2.03;;;;;;;16.17;70.68;96994.28;5025971;28;20057;-78
2022/07/13 05:30:41;;;;;;;4.13;1.70;;;;;;;16.24;71.15;96994.56;5026874;28;20054;-78
2022/07/13 05:33:08;;;;;;;3.88;1.50;;;;;;;16.27;71.08;96999.34;5026110;28;20049;-78
2022/07/13 05:35:34;;;;;;;3.67;1.60;;;;;;;16.30;70.80;96993.19;5026835;28;20053;-78
2022/07/13 05:38:01;;;;;;;6.82;1.85;;;;;;;16.39;71.35;97007.66;5026852;28;20053;-78
2022/07/13 05:40:29;;;;;;;5.38;1.45;;;;;;;16.37;71.06;96998.13;5026333;28;20041;-77
2022/07/13 05:42:56;;;;;;;4.75;1.70;;;;;;;16.43;70.67;96996.75;5026620;28;20045;-78
2022/07/13 05:45:22;;;;;;;4.05;1.58;;;;;;;16.51;71.32;96995.06;5025726;28;20052;-78
2022/07/13 05:47:49;;;;;;;10.18;1.95;;;;;;;16.61;71.39;96986.38;5026656;28;20065;-79
2022/07/13 05:50:16;;;;;;;5.72;1.50;;;;;;;16.71;71.57;96985.97;5025907;28;20456;-78
2022/07/13 05:52:43;;;;;;;8.15;1.92;;;;;;;16.79;69.76;96978.75;5026503;28;20042;-78
2022/07/13 05:55:10;;;;;;;4.95;1.75;;;;;;;16.87;68.72;96978.66;5026231;28;20052;-78
2022/07/13 05:57:39;;;;;;;4.18;1.88;;;;;;;16.83;69.15;96968.66;5019216;28;20046;-79
2022/07/13 06:00:11;;;;;;;6.30;1.75;;;;;;;16.97;69.21;96962.84;5009744;28;20038;-78
2022/07/13 06:02:39;;;;;;;6.43;1.88;;;;;;;17.07;69.00;96959.59;5009879;28;20092;-78
2022/07/13 06:05:06;;;;;;;3.55;1.90;;;;;;;17.04;69.47;96958.34;5009542;28;20046;-78
2022/07/13 06:07:33;;;;;;;4.57;1.90;;;;;;;17.09;69.14;96951.81;5009735;28;20053;-79
2022/07/13 06:10:01;;;;;;;4.00;1.63;;;;;;;17.25;68.87;96947.19;5009839;28;20053;-78
2022/07/13 06:12:28;;;;;;;3.55;1.63;;;;;;;17.38;68.95;96943.28;5009816;28;20071;-79
2022/07/13 06:14:56;;;;;;;3.00;1.60;;;;;;;17.44;68.53;96947.41;5009860;28;20053;-83
2022/07/13 06:17:23;;;;;;;3.08;1.80;;;;;;;17.60;68.37;96941.16;5009393;28;20042;-78
2022/07/13 06:19:50;;;;;;;5.38;1.70;;;;;;;17.73;68.37;96943.53;5009882;28;20412;-77
2022/07/13 06:22:16;;;;;;;2.35;1.50;;;;;;;17.72;67.48;96941.09;5009278;28;20046;-78
2022/07/13 06:24:43;;;;;;;4.55;1.70;;;;;;;17.91;66.89;96938.53;5009747;28;20050;-78
2022/07/13 06:27:10;;;;;;;3.95;1.40;;;;;;;17.94;67.13;96943.34;5009290;28;20061;-78
2022/07/13 06:29:37;;;;;;;4.53;1.50;;;;;;;18.18;66.72;96944.38;5009826;28;20054;-78
2022/07/13 06:32:06;;;;;;;2.80;1.38;;;;;;;18.25;66.56;96939.06;5009066;28;20397;-79
2022/07/13 06:34:32;;;;;;;3.22;1.30;;;;;;;18.36;66.73;96937.38;5009541;28;20061;-78
2022/07/13 06:36:59;;;;;;;1.80;1.30;;;;;;;18.39;66.44;96930.38;5009423;28;20057;-78
2022/07/13 06:39:26;;;;;;;2.70;1.42;;;;;;;18.52;66.82;96929.91;5009029;28;20041;-77
2022/07/13 06:41:52;;;;;;;4.82;1.45;;;;;;;18.57;65.89;96923.31;5009525;28;20396;-78
2022/07/13 06:44:19;;;;;;;3.67;1.30;;;;;;;18.71;66.23;96931.19;5008839;28;20049;-78
2022/07/13 06:46:45;;;;;;;2.28;1.20;;;;;;;18.81;66.17;96927.91;5009224;28;20513;-79
2022/07/13 06:49:16;;;;;;;2.78;1.52;;;;;;;18.86;65.71;96932.34;5008675;28;20136;-78
2022/07/13 06:51:42;;;;;;;3.88;1.60;;;;;;;18.98;65.72;96927.50;5009367;28;20056;-78
2022/07/13 06:54:09;;;;;;;2.33;1.50;;;;;;;19.04;65.89;96937.09;5008798;28;20038;-78
2022/07/13 06:56:35;;;;;;;3.78;1.40;;;;;;;19.24;65.50;96943.50;5009395;28;20050;-78
2022/07/13 06:59:02;;;;;;;3.75;1.23;;;;;;;19.32;64.67;96943.66;5008641;28;20053;-78
2022/07/13 07:01:28;;;;;;;2.28;1.27;;;;;;;19.47;65.00;96946.38;5008959;28;20512;-78
2022/07/13 07:03:55;;;;;;;4.20;1.38;;;;;;;19.67;65.63;96938.91;5009031;28;20069;-77
2022/07/13 07:06:23;;;;;;;2.28;1.10;;;;;;;19.86;62.64;96945.63;5008572;28;20479;-78
2022/07/13 07:08:49;;;;;;;2.80;1.00;;;;;;;20.02;58.83;96944.38;5008344;28;20049;-78
2022/07/13 07:11:16;;;;;;;3.13;1.10;;;;;;;20.15;58.31;96944.22;5008736;28;20050;-78
2022/07/13 07:13:42;;;;;;;1.27;0.90;;;;;;;20.36;59.14;96952.94;5009069;28;20050;-78
2022/07/13 07:16:09;;;;;;;2.30;1.30;;;;;;;20.47;58.46;96947.63;5008579;28;20049;-77
2022/07/13 07:18:35;;;;;;;1.52;1.10;;;;;;;20.58;58.97;96949.41;5008818;28;20607;-78
2022/07/13 07:21:02;;;;;;;2.45;1.08;;;;;;;20.68;59.25;96955.50;5008307;28;20049;-77
2022/07/13 07:23:30;;;;;;;2.70;1.00;;;;;;;20.79;56.70;96956.47;5008707;28;20046;-77
2022/07/13 07:25:56;;;;;;;3.70;1.05;;;;;;;20.80;59.19;96961.63;5008645;28;20085;-78
2022/07/13 07:28:23;;;;;;;2.55;1.20;;;;;;;20.88;59.95;96967.28;5008395;28;20052;-78
2022/07/13 07:30:49;;;;;;;3.65;1.20;;;;;;;20.91;60.44;96967.34;5008528;28;20057;-78
2022/07/13 07:33:16;;;;;;;3.65;1.48;;;;;;;20.96;58.55;96972.56;5008041;28;20065;-77
2022/07/13 07:35:43;;;;;;;3.42;1.13;;;;;;;21.18;57.79;96970.13;5008608;28;20046;-79
2022/07/13 07:38:09;;;;;;;4.82;1.20;;;;;;;21.18;58.34;96970.13;5008071;28;20493;-78
2022/07/13 07:40:37;;;;;;;2.55;1.20;;;;;;;21.22;61.35;96968.22;5008446;28;20501;-78
2022/07/13 07:43:03;;;;;;;4.88;1.38;;;;;;;21.35;60.12;96962.13;5008128;28;20489;-78
2022/07/13 07:45:30;;;;;;;5.28;1.27;;;;;;;21.40;59.92;96961.00;5008360;28;20069;-78
2022/07/13 07:47:56;;;;;;;4.82;1.42;;;;;;;21.48;58.78;96956.38;5008139;28;20532;-78
2022/07/13 07:50:23;;;;;;;3.17;1.70;;;;;;;21.60;58.13;96956.94;5007828;28;20489;-78
2022/07/13 07:52:51;;;;;;;1.15;1.00;;;;;;;21.73;57.17;96951.97;5008449;28;20046;-78
2022/07/13 07:55:19;;;;;;;1.83;1.00;;;;;;;21.85;57.87;96953.69;5007771;28;20073;-78
2022/07/13 07:57:47;;;;;;;4.25;1.20;;;;;;;21.96;57.87;96949.06;5008356;28;20050;-78
2022/07/13 08:00:14;;;;;;;2.05;1.00;;;;;;;22.05;55.25;96944.03;5007909;28;20045;-77
2022/07/13 08:02:41;;;;;;;3.20;1.02;;;;;;;22.00;54.31;96938.03;5008114;28;20065;-77
2022/07/13 08:05:08;;;;;;;1.40;1.00;;;;;;;22.14;53.29;96938.22;5007581;28;20486;-77
2022/07/13 08:07:34;;;;;;;2.83;1.02;;;;;;;22.35;53.16;96937.66;5008141;28;20077;-77
2022/07/13 08:10:01;;;;;;;1.15;0.82;;;;;;;22.46;53.47;96933.00;5008278;28;20046;-77
2022/07/13 08:12:28;;;;;;;4.13;1.10;;;;;;;22.69;51.58;96934.81;5007941;28;20053;-78
2022/07/13 08:14:56;;;;;;;1.13;0.90;;;;;;;22.88;50.35;96945.72;5008022;28;20038;-79
2022/07/13 08:17:22;;;;;;;1.45;0.70;;;;;;;22.81;50.50;96942.81;5007397;28;20049;-78
2022/07/13 08:19:49;;;;;;;2.97;0.82;;;;;;;22.86;50.99;96946.03;5006853;28;20068;-77
2022/07/13 08:22:15;;;;;;;1.45;0.80;;;;;;;22.99;50.05;96949.38;5007210;28;20046;-78
2022/07/13 08:24:42;;;;;;;4.72;1.00;;;;;;;23.02;50.88;96951.38;5007658;28;20054;-77
2022/07/13 08:27:08;;;;;;;2.78;0.82;;;;;;;23.10;45.67;96939.13;5007634;28;20050;-77
2022/07/13 08:29:35;;;;;;;5.82;0.85;;;;;;;22.97;45.73;96946.19;5007712;28;20046;-78
2022/07/13 08:32:04;;;;;;;2.08;0.85;;;;;;;23.09;46.80;96943.09;5007221;28;20508;-77
2022/07/13 08:40:07;;;;;;;2.08;0.90;;;;;;;23.15;46.39;96936.00;5007070;28;20061;-77
2022/07/13 08:42:33;;;;;;;1.85;0.70;;;;;;;23.23;45.83;96934.09;5007515;28;20045;-77
2022/07/13 08:45:00;;;;;;;2.33;1.10;;;;;;;23.23;46.84;96930.47;5007526;28;20228;-78
2022/07/13 08:47:30;;;;;;;1.15;0.90;;;;;;;23.20;45.86;96931.28;5007280;28;20045;-77
2022/07/13 08:49:59;;;;;;;1.15;0.90;;;;;;;23.15;46.56;96936.00;5007430;28;20501;-78
2022/07/13 08:52:27;;;;;;;1.33;0.70;;;;;;;23.19;47.12;96938.81;5006914;28;20771;-77
2022/07/13 08:54:53;;;;;;;1.00;0.75;;;;;;;23.09;47.65;96937.53;5007529;28;20042;-77
2022/07/13 08:57:20;;;;;;;0.85;0.70;;;;;;;23.17;46.33;96939.19;5006959;28;20135;-79
2022/07/13 08:59:46;;;;;;;2.85;0.93;;;;;;;23.48;46.91;96942.56;5007323;28;20053;-77
2022/07/13 09:02:13;;;;;;;1.30;0.90;;;;;;;23.80;41.88;96931.63;5006877;28;20045;-78
2022/07/13 09:04:42;;;;;;;2.45;0.85;;;;;;;24.24;47.87;96932.59;5006992;28;20053;-78
2022/07/13 09:07:11;;;;;;;0.88;0.73;;;;;;;24.68;40.68;96933.09;5006798;28;20062;-77
2022/07/13 09:09:38;;;;;;;1.25;0.70;;;;;;;24.86;38.09;96938.69;5006954;28;20134;-77
2022/07/13 09:12:15;;;;;;;0.77;0.63;;;;;;;25.01;36.82;96936.69;5006695;28;20053;-78
2022/07/13 09:14:42;;;;;;;2.25;0.80;;;;;;;25.05;39.49;96936.69;5007053;28;20429;-78
2022/07/13 09:17:09;;;;;;;1.33;0.90;;;;;;;24.95;37.80;96939.09;5006576;28;20057;-78
2022/07/13 09:19:38;;;;;;;2.63;0.75;;;;;;;24.97;38.94;96952.63;5006925;28;20510;-78
2022/07/13 09:22:11;;;;;;;3.17;0.82;;;;;;;24.93;40.12;96940.66;5006415;28;20046;-78
2022/07/13 09:24:43;;;;;;;2.80;0.90;;;;;;;24.77;38.07;96943.06;5006675;28;20053;-78
2022/07/13 09:27:10;;;;;;;0.98;0.60;;;;;;;24.72;39.43;96947.81;5006953;28;20079;-77
2022/07/13 09:29:37;;;;;;;1.75;0.80;;;;;;;24.68;36.86;96938.66;5006947;28;20126;-78
2022/07/13 09:32:08;;;;;;;1.25;0.80;;;;;;;25.02;40.22;96938.28;5009093;28;20058;-77
2022/07/13 09:34:52;;;;;;;1.70;0.90;;;;;;;25.36;45.01;96941.44;5010236;28;20061;-78
2022/07/13 09:37:22;;;;;;;1.42;0.70;;;;;;;25.46;40.06;96937.06;5009899;28;20054;-78
2022/07/13 09:39:59;;;;;;;2.65;0.80;;;;;;;25.56;45.24;96938.22;5010426;28;20050;-78
2022/07/13 09:42:27;;;;;;;1.58;1.00;;;;;;;25.53;42.05;96942.63;5009780;28;20045;-77
2022/07/13 09:47:43;;;;;;;0.73;0.70;;;;;;;25.59;39.45;96938.22;5010183;28;20126;-77
2022/07/13 09:50:10;;;;;;;2.33;0.80;;;;;;;25.33;39.19;96925.53;5009632;28;20050;-78
2022/07/13 09:52:38;;;;;;;0.90;0.70;;;;;;;25.40;40.00;96933.88;5010241;28;20524;-77
2022/07/13 09:55:10;;;;;;;4.00;1.00;;;;;;;25.35;37.72;96939.06;5009752;28;20449;-78
2022/07/13 09:57:44;;;;;;;1.38;0.77;;;;;;;25.63;39.17;96927.88;5009752;28;20511;-77
2022/07/13 10:00:13;;;;;;;2.80;0.85;;;;;;;25.73;38.64;96921.44;5009744;28;20057;-77
2022/07/13 10:02:42;;;;;;;3.72;0.93;;;;;;;25.79;40.32;96923.84;5009869;28;20562;-77
2022/07/13 10:05:10;;;;;;;1.23;0.73;;;;;;;25.85;36.01;96922.25;5009564;28;20045;-77
2022/07/13 10:07:38;;;;;;;2.33;0.90;;;;;;;25.85;37.85;96920.25;5009798;28;20052;-77
2022/07/13 10:10:07;;;;;;;1.02;0.73;;;;;;;25.82;38.73;96917.47;5009287;28;20046;-77
2022/07/13 10:12:36;;;;;;;1.33;0.70;;;;;;;25.75;38.84;96923.88;5010262;28;20046;-77
2022/07/13 10:15:02;;;;;;;4.45;0.80;;;;;;;25.93;40.85;96923.78;5009521;28;20405;-77
2022/07/13 10:17:30;;;;;;;1.35;0.95;;;;;;;25.68;35.05;96924.63;5009792;28;20046;-77
2022/07/13 10:20:06;;;;;;;2.78;0.60;;;;;;;25.93;38.83;96937.75;5009932;28;20069;-78
2022/07/13 10:22:38;;;;;;;3.95;0.90;;;;;;;25.91;37.91;96934.56;5009714;28;20408;-75
2022/07/13 10:25:08;;;;;;;3.40;0.60;;;;;;;26.08;38.86;96942.06;5009109;28;20049;-78
2022/07/13 10:27:36;;;;;;;2.70;0.80;;;;;;;26.20;35.90;96938.81;5009929;28;20500;-78
2022/07/13 10:30:05;;;;;;;1.33;0.70;;;;;;;26.26;37.51;96937.19;5009117;28;20041;-79
2022/07/13 10:32:33;;;;;;;2.13;0.73;;;;;;;26.21;35.30;96934.84;5009379;28;20535;-77
2022/07/13 10:35:01;;;;;;;0.60;0.60;;;;;;;26.22;33.26;96930.03;5009445;28;20050;-78
2022/07/13 10:37:28;;;;;;;1.25;0.63;;;;;;;26.21;35.32;96934.84;5009642;28;20072;-77
2022/07/13 10:40:13;;;;;;;0.70;0.52;;;;;;;26.19;30.98;96930.84;5009517;28;20053;-76
2022/07/13 10:43:17;;;;;;;1.42;0.80;;;;;;;26.08;31.54;96928.09;5008534;28;20053;-77
2022/07/13 10:45:48;;;;;;;1.48;0.80;;;;;;;26.09;33.77;96914.94;5009197;28;20054;-76
2022/07/13 10:48:43;;;;;;;2.15;0.60;;;;;;;26.05;33.42;96925.31;5009045;28;20076;-77
2022/07/13 10:51:21;;;;;;;2.30;0.80;;;;;;;26.03;35.87;96932.13;5008754;28;20073;-77
2022/07/13 10:54:12;;;;;;;0.70;0.70;;;;;;;26.09;36.77;96929.69;5009189;28;20496;-77
2022/07/13 10:57:14;;;;;;;0.55;0.45;;;;;;;26.17;38.72;96936.06;5019116;28;20049;-78
2022/07/13 10:59:50;;;;;;;4.40;0.70;;;;;;;26.08;31.42;96924.53;5009176;28;20053;-78
2022/07/13 11:02:42;;;;;;;0.70;0.60;;;;;;;26.07;34.42;96923.72;5008493;28;20360;-79
2022/07/13 11:05:09;;;;;;;0.63;0.60;;;;;;;26.04;38.18;96921.75;5008592;28;20099;-78
2022/07/13 11:07:44;;;;;;;0.70;0.70;;;;;;;26.03;35.96;96911.78;5008788;28;20046;-76
2022/07/13 11:10:25;;;;;;;1.40;0.60;;;;;;;26.05;35.67;96909.41;5008520;28;20045;-76
2022/07/13 11:13:04;;;;;;;3.70;0.98;;;;;;;25.97;34.17;96905.03;5008897;28;20045;-77
2022/07/13 11:15:49;;;;;;;1.15;0.65;;;;;;;26.01;35.68;96898.25;5008762;28;20042;-77
2022/07/13 11:18:27;;;;;;;0.75;0.57;;;;;;;25.98;35.93;96901.03;5008169;28;20499;-78
2022/07/13 11:20:59;;;;;;;1.20;0.70;;;;;;;26.04;32.38;96899.41;5008730;28;20054;-78
2022/07/13 11:26:18;;;;;;;2.60;0.60;;;;;;;26.01;35.54;96906.63;5008296;28;20172;-78
2022/07/13 11:28:52;;;;;;;1.92;0.70;;;;;;;26.02;32.10;96896.25;5008210;28;20496;-77
2022/07/13 11:31:20;;;;;;;1.52;0.50;;;;;;;26.08;30.10;96902.19;5007915;28;20042;-78
2022/07/13 11:33:50;;;;;;;4.10;2.08;;;;;;;26.27;29.62;96888.53;5008346;28;20084;-78
2022/07/13 11:36:20;;;;;;;2.38;1.98;;;;;;;26.39;28.16;96883.66;5008081;28;20057;-78
2022/07/13 11:38:46;;;;;;;1.40;0.75;;;;;;;26.47;28.26;96879.66;5008144;28;20061;-77
2022/07/13 11:41:18;;;;;;;3.05;0.50;;;;;;;26.73;30.69;96879.06;5007964;28;20050;-79
2022/07/13 11:43:53;;;;;;;0.45;0.45;;;;;;;26.91;30.18;96876.09;5008463;28;20194;-79
2022/07/13 11:46:24;;;;;;;2.45;0.52;;;;;;;27.00;28.50;96878.44;5007821;28;20115;-78
2022/07/13 11:49:01;;;;;;;1.27;0.50;;;;;;;26.92;30.92;96871.31;5007951;28;20476;-78
2022/07/13 11:51:28;;;;;;;0.60;0.50;;;;;;;26.85;29.52;96876.97;5008059;28;20046;-79